sensor_id;sensor_type;location;lat;lon;timestamp;pressure;altitude;pressure_sealevel;temperature;humidity
16120;BME280;12670;53.502;10.252;2023-01-25T00:02:05;103458.50;;;3.31;88.08
16120;BME280;12670;53.502;10.252;2023-01-25T00:05:08;103455.88;;;3.04;88.61
16120;BME280;12670;53.502;10.252;2023-01-25T00:08:11;103449.88;;;2.81;90.04
16120;BME280;12670;53.502;10.252;2023-01-25T00:11:13;103439.53;;;3.11;89.17
16120;BME280;12670;53.502;10.252;2023-01-25T00:14:18;103434.72;;;2.72;89.10
16120;BME280;12670;53.502;10.252;2023-01-25T00:17:21;103434.88;;;3.04;89.94
16120;BME280;12670;53.502;10.252;2023-01-25T00:20:24;103434.00;;;2.51;90.87
16120;BME280;12670;53.502;10.252;2023-01-25T00:23:27;103420.97;;;2.79;89.56
16120;BME280;12670;53.502;10.252;2023-01-25T00:26:30;103428.66;;;3.00;88.50
16120;BME280;12670;53.502;10.252;2023-01-25T00:29:53;103435.25;;;3.14;88.35
16120;BME280;12670;53.502;10.252;2023-01-25T00:33:33;103416.84;;;3.13;89.04
16120;BME280;12670;53.502;10.252;2023-01-25T00:36:41;103422.31;;;3.20;88.39
16120;BME280;12670;53.502;10.252;2023-01-25T00:39:45;103420.56;;;3.21;89.02
16120;BME280;12670;53.502;10.252;2023-01-25T00:42:48;103418.09;;;3.26;88.32
16120;BME280;12670;53.502;10.252;2023-01-25T00:45:59;103421.78;;;3.31;88.39
16120;BME280;12670;53.502;10.252;2023-01-25T00:49:02;103415.25;;;3.18;88.33
16120;BME280;12670;53.502;10.252;2023-01-25T00:52:05;103408.81;;;2.81;89.51
16120;BME280;12670;53.502;10.252;2023-01-25T00:55:08;103407.06;;;3.09;89.11
16120;BME280;12670;53.502;10.252;2023-01-25T00:58:11;103398.50;;;3.14;88.35
16120;BME280;12670;53.502;10.252;2023-01-25T01:01:15;103397.44;;;3.08;88.33
16120;BME280;12670;53.502;10.252;2023-01-25T01:04:18;103392.50;;;3.17;88.50
16120;BME280;12670;53.502;10.252;2023-01-25T01:07:21;103392.75;;;3.26;87.48
16120;BME280;12670;53.502;10.252;2023-01-25T01:10:23;103382.94;;;2.39;89.70
16120;BME280;12670;53.502;10.252;2023-01-25T01:13:26;103385.56;;;2.39;90.80
16120;BME280;12670;53.502;10.252;2023-01-25T01:16:30;103382.78;;;2.60;91.28
16120;BME280;12670;53.502;10.252;2023-01-25T01:19:33;103385.28;;;2.57;91.53
16120;BME280;12670;53.502;10.252;2023-01-25T01:22:36;103390.56;;;2.84;91.07
16120;BME280;12670;53.502;10.252;2023-01-25T01:25:39;103381.34;;;2.97;90.69
16120;BME280;12670;53.502;10.252;2023-01-25T01:28:41;103383.56;;;3.12;89.63
16120;BME280;12670;53.502;10.252;2023-01-25T01:31:48;103387.75;;;2.78;90.95
16120;BME280;12670;53.502;10.252;2023-01-25T01:34:51;103385.84;;;2.74;90.24
16120;BME280;12670;53.502;10.252;2023-01-25T01:37:54;103388.25;;;1.92;93.55
16120;BME280;12670;53.502;10.252;2023-01-25T01:40:56;103381.09;;;2.62;92.52
16120;BME280;12670;53.502;10.252;2023-01-25T01:43:59;103383.38;;;2.79;90.90
16120;BME280;12670;53.502;10.252;2023-01-25T01:47:03;103373.78;;;2.79;90.48
16120;BME280;12670;53.502;10.252;2023-01-25T01:50:15;103382.38;;;3.02;90.31
16120;BME280;12670;53.502;10.252;2023-01-25T01:53:20;103375.06;;;2.92;90.61
16120;BME280;12670;53.502;10.252;2023-01-25T01:56:30;103372.94;;;2.80;89.50
16120;BME280;12670;53.502;10.252;2023-01-25T01:59:36;103367.69;;;2.28;91.74
16120;BME280;12670;53.502;10.252;2023-01-25T02:02:41;103370.31;;;2.53;92.08
16120;BME280;12670;53.502;10.252;2023-01-25T02:05:47;103364.41;;;2.59;90.79
16120;BME280;12670;53.502;10.252;2023-01-25T02:08:54;103361.22;;;2.42;91.89
16120;BME280;12670;53.502;10.252;2023-01-25T02:11:58;103363.53;;;2.60;91.39
16120;BME280;12670;53.502;10.252;2023-01-25T02:15:01;103353.72;;;2.81;91.16
16120;BME280;12670;53.502;10.252;2023-01-25T02:18:05;103349.91;;;2.18;91.79
16120;BME280;12670;53.502;10.252;2023-01-25T02:21:08;103350.03;;;2.22;94.33
16120;BME280;12670;53.502;10.252;2023-01-25T02:24:16;103353.22;;;2.64;92.97
16120;BME280;12670;53.502;10.252;2023-01-25T02:27:23;103346.19;;;2.90;91.57
16120;BME280;12670;53.502;10.252;2023-01-25T02:30:26;103349.38;;;1.78;93.64
16120;BME280;12670;53.502;10.252;2023-01-25T02:33:29;103347.81;;;2.34;93.31
16120;BME280;12670;53.502;10.252;2023-01-25T02:36:33;103338.38;;;2.39;92.04
16120;BME280;12670;53.502;10.252;2023-01-25T02:39:36;103339.41;;;2.43;92.76
16120;BME280;12670;53.502;10.252;2023-01-25T02:42:43;103343.41;;;2.59;92.46
16120;BME280;12670;53.502;10.252;2023-01-25T02:45:48;103341.59;;;2.31;92.11
16120;BME280;12670;53.502;10.252;2023-01-25T02:48:54;103337.13;;;2.03;92.67
16120;BME280;12670;53.502;10.252;2023-01-25T02:51:57;103331.34;;;2.11;93.02
16120;BME280;12670;53.502;10.252;2023-01-25T02:54:59;103334.38;;;2.24;92.48
16120;BME280;12670;53.502;10.252;2023-01-25T02:58:03;103326.94;;;2.36;91.99
16120;BME280;12670;53.502;10.252;2023-01-25T03:01:06;103326.56;;;2.25;91.91
16120;BME280;12670;53.502;10.252;2023-01-25T03:04:09;103327.44;;;2.51;90.75
16120;BME280;12670;53.502;10.252;2023-01-25T03:07:12;103309.63;;;2.68;90.62
16120;BME280;12670;53.502;10.252;2023-01-25T03:10:15;103309.63;;;2.16;91.48
16120;BME280;12670;53.502;10.252;2023-01-25T03:13:19;103305.91;;;2.34;91.41
16120;BME280;12670;53.502;10.252;2023-01-25T03:16:21;103302.13;;;1.75;93.20
16120;BME280;12670;53.502;10.252;2023-01-25T03:19:24;103302.53;;;1.62;94.40
16120;BME280;12670;53.502;10.252;2023-01-25T03:22:26;103303.38;;;1.61;94.43
16120;BME280;12670;53.502;10.252;2023-01-25T03:25:29;103297.56;;;1.94;93.27
16120;BME280;12670;53.502;10.252;2023-01-25T03:28:33;103288.66;;;2.14;93.32
16120;BME280;12670;53.502;10.252;2023-01-25T03:31:36;103285.28;;;1.67;91.78
16120;BME280;12670;53.502;10.252;2023-01-25T03:34:39;103282.72;;;2.20;91.17
16120;BME280;12670;53.502;10.252;2023-01-25T03:37:41;103275.31;;;2.33;90.24
16120;BME280;12670;53.502;10.252;2023-01-25T03:40:44;103272.28;;;2.47;89.12
16120;BME280;12670;53.502;10.252;2023-01-25T03:43:48;103271.84;;;2.61;88.58
16120;BME280;12670;53.502;10.252;2023-01-25T03:46:51;103272.59;;;2.30;88.13
16120;BME280;12670;53.502;10.252;2023-01-25T03:49:53;103273.00;;;1.90;90.72
16120;BME280;12670;53.502;10.252;2023-01-25T03:52:56;103278.72;;;2.31;90.03
16120;BME280;12670;53.502;10.252;2023-01-25T03:56:05;103277.59;;;2.50;88.60
16120;BME280;12670;53.502;10.252;2023-01-25T03:59:11;103278.41;;;2.22;88.97
16120;BME280;12670;53.502;10.252;2023-01-25T04:02:13;103267.13;;;1.97;90.41
16120;BME280;12670;53.502;10.252;2023-01-25T04:05:16;103279.63;;;2.31;90.09
16120;BME280;12670;53.502;10.252;2023-01-25T04:08:19;103273.50;;;1.54;91.09
16120;BME280;12670;53.502;10.252;2023-01-25T04:11:22;103267.16;;;1.73;90.63
16120;BME280;12670;53.502;10.252;2023-01-25T04:14:26;103267.91;;;1.95;89.78
16120;BME280;12670;53.502;10.252;2023-01-25T04:17:44;103267.41;;;1.31;92.19
16120;BME280;12670;53.502;10.252;2023-01-25T04:20:51;103261.47;;;1.85;90.39
16120;BME280;12670;53.502;10.252;2023-01-25T04:23:54;103252.63;;;2.07;88.67
16120;BME280;12670;53.502;10.252;2023-01-25T04:26:56;103254.28;;;2.05;88.09
16120;BME280;12670;53.502;10.252;2023-01-25T04:30:00;103248.50;;;2.40;88.32
16120;BME280;12670;53.502;10.252;2023-01-25T04:33:04;103241.13;;;2.03;88.87
16120;BME280;12670;53.502;10.252;2023-01-25T04:36:07;103236.59;;;2.52;87.90
16120;BME280;12670;53.502;10.252;2023-01-25T04:39:10;103234.25;;;2.32;87.22
16120;BME280;12670;53.502;10.252;2023-01-25T04:42:12;103236.72;;;2.01;87.58
16120;BME280;12670;53.502;10.252;2023-01-25T04:45:16;103221.66;;;1.44;88.93
16120;BME280;12670;53.502;10.252;2023-01-25T04:48:19;103231.66;;;0.84;93.23
16120;BME280;12670;53.502;10.252;2023-01-25T04:51:21;103229.44;;;0.50;94.31
16120;BME280;12670;53.502;10.252;2023-01-25T04:54:24;103230.06;;;0.65;96.44
16120;BME280;12670;53.502;10.252;2023-01-25T04:57:27;103223.94;;;1.11;94.90
16120;BME280;12670;53.502;10.252;2023-01-25T05:00:31;103210.25;;;1.42;92.61
16120;BME280;12670;53.502;10.252;2023-01-25T05:03:34;103207.75;;;1.45;92.13
16120;BME280;12670;53.502;10.252;2023-01-25T05:06:36;103208.13;;;1.56;92.63
16120;BME280;12670;53.502;10.252;2023-01-25T05:09:39;103210.13;;;1.89;91.10
16120;BME280;12670;53.502;10.252;2023-01-25T05:12:42;103208.84;;;1.52;91.00
16120;BME280;12670;53.502;10.252;2023-01-25T05:15:46;103211.28;;;1.71;91.62
16120;BME280;12670;53.502;10.252;2023-01-25T05:18:48;103210.00;;;1.85;91.20
16120;BME280;12670;53.502;10.252;2023-01-25T05:21:51;103211.88;;;0.91;94.06
16120;BME280;12670;53.502;10.252;2023-01-25T05:25:00;103208.16;;;0.62;94.97
16120;BME280;12670;53.502;10.252;2023-01-25T05:28:04;103213.13;;;0.78;94.58
16120;BME280;12670;53.502;10.252;2023-01-25T05:31:08;103201.81;;;1.01;95.69
16120;BME280;12670;53.502;10.252;2023-01-25T05:34:11;103197.41;;;1.48;94.11
16120;BME280;12670;53.502;10.252;2023-01-25T05:37:15;103192.03;;;1.45;93.07
16120;BME280;12670;53.502;10.252;2023-01-25T05:40:18;103182.50;;;1.22;93.01
16120;BME280;12670;53.502;10.252;2023-01-25T05:43:21;103184.34;;;1.24;94.20
16120;BME280;12670;53.502;10.252;2023-01-25T05:46:27;103189.16;;;1.38;92.25
16120;BME280;12670;53.502;10.252;2023-01-25T05:49:30;103183.16;;;1.16;94.70
16120;BME280;12670;53.502;10.252;2023-01-25T05:52:32;103187.81;;;1.49;92.98
16120;BME280;12670;53.502;10.252;2023-01-25T05:55:35;103178.47;;;1.06;94.22
16120;BME280;12670;53.502;10.252;2023-01-25T05:58:38;103191.44;;;0.58;95.68
16120;BME280;12670;53.502;10.252;2023-01-25T06:01:42;103169.72;;;1.29;94.64
16120;BME280;12670;53.502;10.252;2023-01-25T06:04:45;103172.28;;;1.53;92.52
16120;BME280;12670;53.502;10.252;2023-01-25T06:07:47;103169.47;;;1.74;91.95
16120;BME280;12670;53.502;10.252;2023-01-25T06:10:50;103164.94;;;1.69;92.11
16120;BME280;12670;53.502;10.252;2023-01-25T06:13:52;103156.91;;;1.13;93.77
16120;BME280;12670;53.502;10.252;2023-01-25T06:16:56;103159.75;;;1.19;93.94
16120;BME280;12670;53.502;10.252;2023-01-25T06:19:59;103155.16;;;1.12;94.95
16120;BME280;12670;53.502;10.252;2023-01-25T06:23:02;103160.00;;;1.27;94.89
16120;BME280;12670;53.502;10.252;2023-01-25T06:26:06;103155.94;;;1.60;93.12
16120;BME280;12670;53.502;10.252;2023-01-25T06:29:09;103155.38;;;1.18;93.68
16120;BME280;12670;53.502;10.252;2023-01-25T06:32:13;103156.00;;;1.37;94.19
16120;BME280;12670;53.502;10.252;2023-01-25T06:35:16;103160.13;;;1.30;94.74
16120;BME280;12670;53.502;10.252;2023-01-25T06:38:19;103160.19;;;1.31;93.80
16120;BME280;12670;53.502;10.252;2023-01-25T06:41:21;103170.97;;;1.66;93.45
16120;BME280;12670;53.502;10.252;2023-01-25T06:44:24;103160.94;;;1.29;93.91
16120;BME280;12670;53.502;10.252;2023-01-25T06:47:28;103167.84;;;1.76;92.88
16120;BME280;12670;53.502;10.252;2023-01-25T06:50:31;103174.06;;;1.81;91.35
16120;BME280;12670;53.502;10.252;2023-01-25T06:53:35;103170.94;;;1.15;92.91
16120;BME280;12670;53.502;10.252;2023-01-25T06:56:38;103177.28;;;0.98;95.13
16120;BME280;12670;53.502;10.252;2023-01-25T06:59:41;103174.88;;;1.04;95.18
16120;BME280;12670;53.502;10.252;2023-01-25T07:02:45;103176.44;;;0.52;96.23
16120;BME280;12670;53.502;10.252;2023-01-25T07:05:47;103175.03;;;0.61;97.28
16120;BME280;12670;53.502;10.252;2023-01-25T07:08:51;103168.03;;;1.31;96.00
16120;BME280;12670;53.502;10.252;2023-01-25T07:11:54;103156.56;;;1.28;94.53
16120;BME280;12670;53.502;10.252;2023-01-25T07:14:56;103154.09;;;1.32;94.62
16120;BME280;12670;53.502;10.252;2023-01-25T07:18:00;103158.09;;;1.47;94.97
16120;BME280;12670;53.502;10.252;2023-01-25T07:21:17;103146.94;;;1.52;93.48
16120;BME280;12670;53.502;10.252;2023-01-25T07:24:21;103143.94;;;1.67;93.21
16120;BME280;12670;53.502;10.252;2023-01-25T07:27:27;103151.69;;;1.90;92.64
16120;BME280;12670;53.502;10.252;2023-01-25T07:30:30;103142.50;;;1.24;94.18
16120;BME280;12670;53.502;10.252;2023-01-25T07:33:34;103142.78;;;1.08;94.99
16120;BME280;12670;53.502;10.252;2023-01-25T07:36:37;103133.50;;;0.46;97.66
16120;BME280;12670;53.502;10.252;2023-01-25T07:39:39;103132.75;;;0.95;97.66
16120;BME280;12670;53.502;10.252;2023-01-25T07:42:49;103126.22;;;1.33;95.89
16120;BME280;12670;53.502;10.252;2023-01-25T07:45:52;103134.19;;;1.36;94.16
16120;BME280;12670;53.502;10.252;2023-01-25T07:48:56;103127.22;;;1.37;94.83
16120;BME280;12670;53.502;10.252;2023-01-25T07:51:59;103125.97;;;1.51;95.01
16120;BME280;12670;53.502;10.252;2023-01-25T07:55:02;103115.03;;;1.37;94.79
16120;BME280;12670;53.502;10.252;2023-01-25T07:58:05;103114.31;;;0.92;95.85
16120;BME280;12670;53.502;10.252;2023-01-25T08:01:09;103111.22;;;1.27;95.84
16120;BME280;12670;53.502;10.252;2023-01-25T08:04:14;103111.09;;;1.50;95.15
16120;BME280;12670;53.502;10.252;2023-01-25T08:07:16;103101.63;;;1.02;96.81
16120;BME280;12670;53.502;10.252;2023-01-25T08:10:20;103098.69;;;0.93;96.21
16120;BME280;12670;53.502;10.252;2023-01-25T08:13:23;103094.19;;;0.89;97.20
16120;BME280;12670;53.502;10.252;2023-01-25T08:16:25;103086.41;;;1.16;96.90
16120;BME280;12670;53.502;10.252;2023-01-25T08:19:29;103085.91;;;1.26;95.53
16120;BME280;12670;53.502;10.252;2023-01-25T08:22:32;103093.19;;;0.86;98.45
16120;BME280;12670;53.502;10.252;2023-01-25T08:25:35;103093.13;;;1.08;98.54
16120;BME280;12670;53.502;10.252;2023-01-25T08:28:37;103067.84;;;0.59;98.00
16120;BME280;12670;53.502;10.252;2023-01-25T08:31:40;103075.66;;;1.07;97.99
16120;BME280;12670;53.502;10.252;2023-01-25T08:34:46;103068.91;;;1.14;96.56
16120;BME280;12670;53.502;10.252;2023-01-25T08:37:48;103072.66;;;0.96;97.72
16120;BME280;12670;53.502;10.252;2023-01-25T08:40:51;103080.53;;;0.98;97.04
16120;BME280;12670;53.502;10.252;2023-01-25T08:43:55;103069.00;;;1.42;96.63
16120;BME280;12670;53.502;10.252;2023-01-25T08:46:57;103070.25;;;1.02;97.87
16120;BME280;12670;53.502;10.252;2023-01-25T08:50:02;103060.47;;;0.97;98.24
16120;BME280;12670;53.502;10.252;2023-01-25T08:53:04;103056.03;;;0.70;99.07
16120;BME280;12670;53.502;10.252;2023-01-25T08:56:09;103043.34;;;0.56;99.77
16120;BME280;12670;53.502;10.252;2023-01-25T08:59:12;103044.56;;;1.16;98.66
16120;BME280;12670;53.502;10.252;2023-01-25T09:02:15;103046.56;;;0.98;97.16
16120;BME280;12670;53.502;10.252;2023-01-25T09:05:21;103033.16;;;1.40;97.46
16120;BME280;12670;53.502;10.252;2023-01-25T09:08:23;103030.34;;;1.33;96.13
16120;BME280;12670;53.502;10.252;2023-01-25T09:11:26;103023.25;;;1.29;95.81
16120;BME280;12670;53.502;10.252;2023-01-25T09:14:28;103018.78;;;1.00;97.44
16120;BME280;12670;53.502;10.252;2023-01-25T09:17:31;103020.34;;;0.95;97.60
16120;BME280;12670;53.502;10.252;2023-01-25T09:20:37;103022.47;;;1.33;96.37
16120;BME280;12670;53.502;10.252;2023-01-25T09:23:39;103012.63;;;1.25;95.64
16120;BME280;12670;53.502;10.252;2023-01-25T09:27:04;103012.66;;;1.26;95.46
16120;BME280;12670;53.502;10.252;2023-01-25T09:30:09;103015.78;;;0.89;97.49
16120;BME280;12670;53.502;10.252;2023-01-25T09:33:19;103017.38;;;1.11;97.18
16120;BME280;12670;53.502;10.252;2023-01-25T09:36:22;103017.41;;;0.86;96.18
16120;BME280;12670;53.502;10.252;2023-01-25T09:39:25;103021.25;;;0.71;97.34
16120;BME280;12670;53.502;10.252;2023-01-25T09:42:39;103008.06;;;0.43;100.00
16120;BME280;12670;53.502;10.252;2023-01-25T09:45:46;103019.91;;;0.83;98.27
16120;BME280;12670;53.502;10.252;2023-01-25T09:48:55;103013.63;;;0.77;99.15
16120;BME280;12670;53.502;10.252;2023-01-25T09:52:20;103004.22;;;1.08;97.17
16120;BME280;12670;53.502;10.252;2023-01-25T09:55:31;103004.88;;;1.55;96.24
16120;BME280;12670;53.502;10.252;2023-01-25T09:58:37;103003.09;;;1.54;93.94
16120;BME280;12670;53.502;10.252;2023-01-25T10:01:45;102994.03;;;1.17;95.45
16120;BME280;12670;53.502;10.252;2023-01-25T10:04:51;102997.75;;;0.97;96.21
16120;BME280;12670;53.502;10.252;2023-01-25T10:08:02;102982.13;;;1.25;95.88
16120;BME280;12670;53.502;10.252;2023-01-25T10:11:22;102978.72;;;1.28;95.49
16120;BME280;12670;53.502;10.252;2023-01-25T10:14:26;102982.75;;;1.45;95.87
16120;BME280;12670;53.502;10.252;2023-01-25T10:17:33;102986.94;;;1.67;94.20
16120;BME280;12670;53.502;10.252;2023-01-25T10:20:43;102978.94;;;1.91;94.42
16120;BME280;12670;53.502;10.252;2023-01-25T10:24:04;102977.13;;;1.89;92.68
16120;BME280;12670;53.502;10.252;2023-01-25T10:27:21;102960.06;;;1.17;94.68
16120;BME280;12670;53.502;10.252;2023-01-25T10:30:29;102955.72;;;0.91;96.48
16120;BME280;12670;53.502;10.252;2023-01-25T10:33:37;102944.16;;;1.11;96.21
16120;BME280;12670;53.502;10.252;2023-01-25T10:36:41;102947.88;;;0.91;95.90
16120;BME280;12670;53.502;10.252;2023-01-25T10:39:52;102938.50;;;0.97;96.23
16120;BME280;12670;53.502;10.252;2023-01-25T10:42:59;102947.72;;;0.86;97.80
16120;BME280;12670;53.502;10.252;2023-01-25T10:46:09;102942.44;;;0.85;95.83
16120;BME280;12670;53.502;10.252;2023-01-25T10:49:22;102934.56;;;1.10;97.19
16120;BME280;12670;53.502;10.252;2023-01-25T10:52:27;102937.00;;;0.78;97.06
16120;BME280;12670;53.502;10.252;2023-01-25T10:55:32;102915.75;;;1.22;96.82
16120;BME280;12670;53.502;10.252;2023-01-25T10:58:36;102914.59;;;1.12;96.37
16120;BME280;12670;53.502;10.252;2023-01-25T11:01:39;102913.09;;;1.20;94.54
16120;BME280;12670;53.502;10.252;2023-01-25T11:04:42;102899.53;;;1.05;96.34
16120;BME280;12670;53.502;10.252;2023-01-25T11:07:46;102907.59;;;0.84;97.07
16120;BME280;12670;53.502;10.252;2023-01-25T11:10:51;102901.84;;;0.69;97.28
16120;BME280;12670;53.502;10.252;2023-01-25T11:13:54;102891.34;;;0.67;97.73
16120;BME280;12670;53.502;10.252;2023-01-25T11:16:59;102887.22;;;0.74;97.65
16120;BME280;12670;53.502;10.252;2023-01-25T11:23:23;102873.22;;;1.27;96.96
16120;BME280;12670;53.502;10.252;2023-01-25T11:26:29;102865.22;;;1.23;96.12
16120;BME280;12670;53.502;10.252;2023-01-25T11:29:34;102848.75;;;1.85;94.69
16120;BME280;12670;53.502;10.252;2023-01-25T11:32:37;102847.84;;;0.69;96.56
16120;BME280;12670;53.502;10.252;2023-01-25T11:36:02;102835.22;;;1.10;97.06
16120;BME280;12670;53.502;10.252;2023-01-25T11:39:16;102833.84;;;1.23;96.60
16120;BME280;12670;53.502;10.252;2023-01-25T11:42:33;102829.38;;;1.19;96.45
16120;BME280;12670;53.502;10.252;2023-01-25T11:45:52;102816.50;;;1.25;96.79
16120;BME280;12670;53.502;10.252;2023-01-25T11:49:11;102815.13;;;1.38;95.92
16120;BME280;12670;53.502;10.252;2023-01-25T11:52:28;102800.53;;;1.46;94.49
16120;BME280;12670;53.502;10.252;2023-01-25T11:55:39;102795.00;;;1.65;95.46
16120;BME280;12670;53.502;10.252;2023-01-25T11:59:01;102772.56;;;1.75;93.71
16120;BME280;12670;53.502;10.252;2023-01-25T12:02:21;102781.75;;;1.59;94.77
16120;BME280;12670;53.502;10.252;2023-01-25T12:05:38;102772.34;;;0.77;95.74
16120;BME280;12670;53.502;10.252;2023-01-25T12:08:57;102768.63;;;0.42;98.91
16120;BME280;12670;53.502;10.252;2023-01-25T12:12:14;102757.88;;;0.88;97.53
16120;BME280;12670;53.502;10.252;2023-01-25T12:15:29;102742.06;;;0.84;98.46
16120;BME280;12670;53.502;10.252;2023-01-25T12:18:54;102736.25;;;0.94;97.35
16120;BME280;12670;53.502;10.252;2023-01-25T12:22:23;102734.59;;;1.26;96.16
16120;BME280;12670;53.502;10.252;2023-01-25T12:25:35;102725.06;;;1.59;95.35
16120;BME280;12670;53.502;10.252;2023-01-25T12:28:46;102722.31;;;1.55;95.38
16120;BME280;12670;53.502;10.252;2023-01-25T12:31:55;102719.41;;;1.44;94.86
16120;BME280;12670;53.502;10.252;2023-01-25T12:35:12;102704.94;;;1.25;95.99
16120;BME280;12670;53.502;10.252;2023-01-25T12:38:24;102699.84;;;1.63;95.11
16120;BME280;12670;53.502;10.252;2023-01-25T12:41:34;102685.00;;;1.62;95.10
16120;BME280;12670;53.502;10.252;2023-01-25T12:44:41;102683.28;;;1.64;93.96
16120;BME280;12670;53.502;10.252;2023-01-25T12:47:51;102676.84;;;1.84;94.28
16120;BME280;12670;53.502;10.252;2023-01-25T12:50:56;102667.81;;;2.08;93.56
16120;BME280;12670;53.502;10.252;2023-01-25T12:53:59;102666.19;;;1.44;93.00
16120;BME280;12670;53.502;10.252;2023-01-25T12:57:14;102660.81;;;1.38;94.23
16120;BME280;12670;53.502;10.252;2023-01-25T13:00:22;102660.06;;;1.10;95.51
16120;BME280;12670;53.502;10.252;2023-01-25T13:03:43;102652.88;;;1.03;97.09
16120;BME280;12670;53.502;10.252;2023-01-25T13:06:54;102647.44;;;1.27;94.74
16120;BME280;12670;53.502;10.252;2023-01-25T13:10:02;102651.88;;;0.98;96.71
16120;BME280;12670;53.502;10.252;2023-01-25T13:13:19;102642.94;;;0.31;97.92
16120;BME280;12670;53.502;10.252;2023-01-25T13:16:39;102643.97;;;0.95;99.43
16120;BME280;12670;53.502;10.252;2023-01-25T13:19:44;102636.53;;;1.42;96.55
16120;BME280;12670;53.502;10.252;2023-01-25T13:22:59;102639.47;;;1.22;95.75
16120;BME280;12670;53.502;10.252;2023-01-25T13:26:35;102640.25;;;1.18;96.51
16120;BME280;12670;53.502;10.252;2023-01-25T13:29:43;102634.50;;;1.31;96.67
16120;BME280;12670;53.502;10.252;2023-01-25T13:32:58;102621.19;;;1.57;94.69
16120;BME280;12670;53.502;10.252;2023-01-25T13:36:44;102618.69;;;1.27;95.17
16120;BME280;12670;53.502;10.252;2023-01-25T13:39:48;102607.50;;;1.67;94.97
16120;BME280;12670;53.502;10.252;2023-01-25T13:42:58;102601.34;;;1.30;96.17
16120;BME280;12670;53.502;10.252;2023-01-25T13:46:03;102601.50;;;1.03;97.22
16120;BME280;12670;53.502;10.252;2023-01-25T13:49:17;102603.59;;;1.50;96.93
16120;BME280;12670;53.502;10.252;2023-01-25T13:52:25;102603.50;;;1.12;96.76
16120;BME280;12670;53.502;10.252;2023-01-25T13:55:29;102604.44;;;0.84;98.97
16120;BME280;12670;53.502;10.252;2023-01-25T13:58:44;102598.00;;;1.36;99.00
16120;BME280;12670;53.502;10.252;2023-01-25T14:01:48;102593.22;;;1.53;96.85
16120;BME280;12670;53.502;10.252;2023-01-25T14:04:52;102593.97;;;1.49;96.55
16120;BME280;12670;53.502;10.252;2023-01-25T14:07:56;102591.19;;;1.77;96.07
16120;BME280;12670;53.502;10.252;2023-01-25T14:10:58;102577.88;;;1.68;95.29
16120;BME280;12670;53.502;10.252;2023-01-25T14:14:13;102574.50;;;1.72;95.98
16120;BME280;12670;53.502;10.252;2023-01-25T14:17:19;102574.53;;;1.75;95.94
16120;BME280;12670;53.502;10.252;2023-01-25T14:20:23;102578.44;;;1.93;95.51
16120;BME280;12670;53.502;10.252;2023-01-25T14:23:28;102577.56;;;1.56;96.89
16120;BME280;12670;53.502;10.252;2023-01-25T14:26:32;102575.88;;;1.58;96.28
16120;BME280;12670;53.502;10.252;2023-01-25T14:29:38;102574.50;;;1.72;96.00
16120;BME280;12670;53.502;10.252;2023-01-25T14:32:41;102566.16;;;1.89;95.98
16120;BME280;12670;53.502;10.252;2023-01-25T14:35:44;102555.03;;;1.61;96.71
16120;BME280;12670;53.502;10.252;2023-01-25T14:38:58;102555.28;;;1.36;97.52
16120;BME280;12670;53.502;10.252;2023-01-25T14:42:04;102560.50;;;1.70;97.98
16120;BME280;12670;53.502;10.252;2023-01-25T14:45:11;102545.88;;;1.44;97.56
16120;BME280;12670;53.502;10.252;2023-01-25T14:48:34;102545.13;;;1.48;97.88
16120;BME280;12670;53.502;10.252;2023-01-25T14:51:40;102537.88;;;1.38;99.16
16120;BME280;12670;53.502;10.252;2023-01-25T14:54:49;102536.84;;;1.67;98.47
16120;BME280;12670;53.502;10.252;2023-01-25T14:57:57;102537.75;;;1.68;98.58
16120;BME280;12670;53.502;10.252;2023-01-25T15:01:01;102542.84;;;1.63;98.34
16120;BME280;12670;53.502;10.252;2023-01-25T15:04:09;102536.34;;;1.46;99.85
16120;BME280;12670;53.502;10.252;2023-01-25T15:07:31;102524.56;;;1.28;100.00
16120;BME280;12670;53.502;10.252;2023-01-25T15:10:37;102534.56;;;1.10;100.00
16120;BME280;12670;53.502;10.252;2023-01-25T15:13:40;102526.56;;;1.39;100.00
16120;BME280;12670;53.502;10.252;2023-01-25T15:16:42;102523.03;;;1.37;100.00
16120;BME280;12670;53.502;10.252;2023-01-25T15:19:51;102531.50;;;1.63;100.00
16120;BME280;12670;53.502;10.252;2023-01-25T15:22:54;102523.09;;;1.40;100.00
16120;BME280;12670;53.502;10.252;2023-01-25T15:25:59;102511.84;;;1.42;100.00
16120;BME280;12670;53.502;10.252;2023-01-25T15:29:11;102518.03;;;1.11;100.00
16120;BME280;12670;53.502;10.252;2023-01-25T15:32:18;102512.66;;;1.40;100.00
16120;BME280;12670;53.502;10.252;2023-01-25T15:35:21;102515.38;;;1.44;100.00
16120;BME280;12670;53.502;10.252;2023-01-25T15:38:24;102500.06;;;1.23;100.00
16120;BME280;12670;53.502;10.252;2023-01-25T15:41:28;102498.13;;;1.16;100.00
16120;BME280;12670;53.502;10.252;2023-01-25T15:44:31;102499.47;;;1.35;100.00
16120;BME280;12670;53.502;10.252;2023-01-25T15:47:34;102489.97;;;1.39;100.00
16120;BME280;12670;53.502;10.252;2023-01-25T15:50:37;102495.75;;;0.91;100.00
16120;BME280;12670;53.502;10.252;2023-01-25T15:53:39;102479.72;;;1.12;100.00
16120;BME280;12670;53.502;10.252;2023-01-25T15:56:44;102476.28;;;1.13;100.00
16120;BME280;12670;53.502;10.252;2023-01-25T15:59:48;102461.91;;;1.31;100.00
16120;BME280;12670;53.502;10.252;2023-01-25T16:02:51;102461.06;;;1.34;100.00
16120;BME280;12670;53.502;10.252;2023-01-25T16:05:57;102464.53;;;0.97;100.00
16120;BME280;12670;53.502;10.252;2023-01-25T16:09:02;102462.97;;;1.05;100.00
16120;BME280;12670;53.502;10.252;2023-01-25T16:12:08;102462.88;;;1.35;100.00
16120;BME280;12670;53.502;10.252;2023-01-25T16:15:11;102460.84;;;1.61;100.00
16120;BME280;12670;53.502;10.252;2023-01-25T16:18:14;102464.19;;;1.54;100.00